sensor_id;sensor_type;location;lat;lon;timestamp;temperature;humidity
17797;DHT22;55596;53.554;9.916;2023-03-01T12:13:59;-0.50;99.90
17797;DHT22;55596;53.554;9.916;2023-03-01T12:16:48;14.50;99.90
17797;DHT22;55596;53.554;9.916;2023-03-01T12:19:39;14.90;99.90
17797;DHT22;55596;53.554;9.916;2023-03-01T12:22:21;14.80;98.60
17797;DHT22;55596;53.554;9.916;2023-03-01T12:31:29;15.30;99.00
17797;DHT22;55596;53.554;9.916;2023-03-01T12:44:29;17.10;93.50
17797;DHT22;55596;53.554;9.916;2023-03-01T12:47:11;17.80;90.40
17797;DHT22;55596;53.554;9.916;2023-03-01T12:52:13;17.90;89.90
17797;DHT22;55596;53.554;9.916;2023-03-01T13:05:02;20.30;65.40
17797;DHT22;55596;53.554;9.916;2023-03-01T13:07:36;20.10;66.00
17797;DHT22;55596;53.554;9.916;2023-03-01T13:10:16;20.10;64.60
17797;DHT22;55596;53.554;9.916;2023-03-01T13:12:52;19.90;63.30
17797;DHT22;55596;53.554;9.916;2023-03-01T13:15:31;20.30;62.50
17797;DHT22;55596;53.554;9.916;2023-03-01T13:18:01;20.40;60.10
17797;DHT22;55596;53.554;9.916;2023-03-01T13:20:34;20.30;59.50
17797;DHT22;55596;53.554;9.916;2023-03-01T13:23:23;20.20;60.00
17797;DHT22;55596;53.554;9.916;2023-03-01T13:26:12;20.10;63.00
17797;DHT22;55596;53.554;9.916;2023-03-01T13:28:53;19.80;59.50
17797;DHT22;55596;53.554;9.916;2023-03-01T13:34:52;19.20;57.00
17797;DHT22;55596;53.554;9.916;2023-03-01T13:37:22;18.70;57.60
17797;DHT22;55596;53.554;9.916;2023-03-01T13:39:51;18.80;60.40
17797;DHT22;55596;53.554;9.916;2023-03-01T13:42:41;18.80;59.90
17797;DHT22;55596;53.554;9.916;2023-03-01T13:45:21;19.10;56.20
17797;DHT22;55596;53.554;9.916;2023-03-01T13:47:56;19.80;52.60
17797;DHT22;55596;53.554;9.916;2023-03-01T13:52:59;20.00;52.80
17797;DHT22;55596;53.554;9.916;2023-03-01T13:55:32;19.80;58.60
17797;DHT22;55596;53.554;9.916;2023-03-01T13:58:04;20.00;58.20
17797;DHT22;55596;53.554;9.916;2023-03-01T14:00:39;19.30;53.60
17797;DHT22;55596;53.554;9.916;2023-03-01T14:03:12;19.40;62.00
17797;DHT22;55596;53.554;9.916;2023-03-01T14:05:42;19.50;55.30
17797;DHT22;55596;53.554;9.916;2023-03-01T14:08:28;19.60;57.40
17797;DHT22;55596;53.554;9.916;2023-03-01T14:11:18;19.60;57.40
17797;DHT22;55596;53.554;9.916;2023-03-01T14:14:07;20.30;52.70
17797;DHT22;55596;53.554;9.916;2023-03-01T14:16:45;19.80;56.30
17797;DHT22;55596;53.554;9.916;2023-03-01T14:19:17;20.10;54.70
17797;DHT22;55596;53.554;9.916;2023-03-01T14:21:46;20.40;53.40
17797;DHT22;55596;53.554;9.916;2023-03-01T14:24:18;20.70;53.40
17797;DHT22;55596;53.554;9.916;2023-03-01T14:26:47;20.80;47.70
17797;DHT22;55596;53.554;9.916;2023-03-01T14:29:25;20.60;49.90
17797;DHT22;55596;53.554;9.916;2023-03-01T14:31:52;20.40;50.80
17797;DHT22;55596;53.554;9.916;2023-03-01T14:34:21;20.30;50.70
17797;DHT22;55596;53.554;9.916;2023-03-01T14:36:50;20.10;49.50
17797;DHT22;55596;53.554;9.916;2023-03-01T14:39:19;20.20;48.50
17797;DHT22;55596;53.554;9.916;2023-03-01T14:41:46;21.00;50.90
17797;DHT22;55596;53.554;9.916;2023-03-01T14:44:16;20.60;46.00
17797;DHT22;55596;53.554;9.916;2023-03-01T14:46:52;20.30;46.00
17797;DHT22;55596;53.554;9.916;2023-03-01T14:49:22;19.90;50.80
17797;DHT22;55596;53.554;9.916;2023-03-01T14:51:55;19.20;47.50
17797;DHT22;55596;53.554;9.916;2023-03-01T14:54:26;18.50;51.90
17797;DHT22;55596;53.554;9.916;2023-03-01T14:56:57;18.00;53.60
17797;DHT22;55596;53.554;9.916;2023-03-01T14:59:25;17.30;53.90
17797;DHT22;55596;53.554;9.916;2023-03-01T15:04:23;15.20;57.70
17797;DHT22;55596;53.554;9.916;2023-03-01T15:06:53;14.90;61.90
17797;DHT22;55596;53.554;9.916;2023-03-01T15:09:22;14.20;56.10
17797;DHT22;55596;53.554;9.916;2023-03-01T15:11:49;14.00;58.40
17797;DHT22;55596;53.554;9.916;2023-03-01T15:14:27;13.90;59.50
17797;DHT22;55596;53.554;9.916;2023-03-01T15:16:54;13.80;61.10
17797;DHT22;55596;53.554;9.916;2023-03-01T15:19:24;13.40;60.40
17797;DHT22;55596;53.554;9.916;2023-03-01T15:21:55;13.10;62.50
17797;DHT22;55596;53.554;9.916;2023-03-01T15:24:24;13.10;60.80
17797;DHT22;55596;53.554;9.916;2023-03-01T15:26:55;12.80;59.60
17797;DHT22;55596;53.554;9.916;2023-03-01T15:29:25;12.90;62.10
17797;DHT22;55596;53.554;9.916;2023-03-01T15:31:57;12.90;66.00
17797;DHT22;55596;53.554;9.916;2023-03-01T15:34:25;12.70;71.20
17797;DHT22;55596;53.554;9.916;2023-03-01T15:36:55;12.80;66.00
17797;DHT22;55596;53.554;9.916;2023-03-01T15:39:36;12.80;64.20
17797;DHT22;55596;53.554;9.916;2023-03-01T15:42:10;13.00;62.20
17797;DHT22;55596;53.554;9.916;2023-03-01T15:44:39;12.70;62.40
17797;DHT22;55596;53.554;9.916;2023-03-01T15:47:23;12.40;61.10
17797;DHT22;55596;53.554;9.916;2023-03-01T15:49:52;12.40;69.90
